createdAt,value
2019-03-08T00:00:30.246Z,6.33
2019-03-08T00:02:58.143Z,6.40
2019-03-08T00:05:26.041Z,6.31
2019-03-08T00:07:53.960Z,6.33
2019-03-08T00:10:21.835Z,6.25
2019-03-08T00:12:49.714Z,6.17
2019-03-08T00:15:17.625Z,6.17
2019-03-08T00:17:45.572Z,6.12
2019-03-08T00:20:15.408Z,5.98
2019-03-08T00:22:43.320Z,5.97
2019-03-08T00:25:12.000Z,5.89
2019-03-08T00:27:39.989Z,5.97
2019-03-08T00:30:08.572Z,5.97
2019-03-08T00:32:36.475Z,6.00
2019-03-08T00:35:04.380Z,5.95
2019-03-08T00:37:32.273Z,6.01
2019-03-08T00:40:00.302Z,6.01
2019-03-08T00:42:28.081Z,6.24
2019-03-08T00:44:55.976Z,6.21
2019-03-08T00:47:23.873Z,6.21
2019-03-08T00:49:52.744Z,6.14
2019-03-08T00:52:20.647Z,6.25
2019-03-08T00:54:48.566Z,6.25
2019-03-08T00:57:17.461Z,6.32
2019-03-08T00:59:45.376Z,6.27
2019-03-08T01:02:13.244Z,6.58
2019-03-08T01:04:42.022Z,6.73
2019-03-08T01:07:09.952Z,6.85
2019-03-08T01:09:37.851Z,6.90
2019-03-08T01:12:05.743Z,7.08
2019-03-08T01:14:33.648Z,7.32
2019-03-08T01:17:02.473Z,7.28
2019-03-08T01:19:30.385Z,7.23
2019-03-08T01:21:58.275Z,7.23
2019-03-08T01:24:26.201Z,7.22
2019-03-08T01:26:54.097Z,7.20
2019-03-08T01:29:21.984Z,7.15
2019-03-08T01:31:49.876Z,7.15
2019-03-08T01:34:17.768Z,7.20
2019-03-08T01:36:45.667Z,7.11
2019-03-08T01:39:13.563Z,7.07
2019-03-08T01:41:41.463Z,7.08
2019-03-08T01:44:09.361Z,7.04
2019-03-08T01:46:37.259Z,7.17
2019-03-08T01:49:05.139Z,7.22
2019-03-08T01:51:33.024Z,7.17
2019-03-08T01:54:00.918Z,7.12
2019-03-08T01:56:28.829Z,7.06
2019-03-08T01:58:57.312Z,7.07
2019-03-08T02:01:25.202Z,7.02
2019-03-08T02:03:53.127Z,7.01
2019-03-08T02:06:21.024Z,7.11
2019-03-08T02:08:48.902Z,7.08
2019-03-08T02:11:16.791Z,7.04
2019-03-08T02:13:44.684Z,7.01
2019-03-08T02:16:12.573Z,7.02
2019-03-08T02:18:40.477Z,6.92
2019-03-08T02:21:08.387Z,6.87
2019-03-08T02:23:37.237Z,6.85
2019-03-08T02:26:05.298Z,6.83
2019-03-08T02:28:33.198Z,6.79
2019-03-08T02:31:01.098Z,6.76
2019-03-08T02:33:28.993Z,6.81
2019-03-08T02:35:56.892Z,6.87
2019-03-08T02:38:24.793Z,6.94
2019-03-08T02:40:52.675Z,6.94
2019-03-08T02:43:20.572Z,6.95
2019-03-08T02:45:48.484Z,6.81
2019-03-08T02:48:16.392Z,6.67
2019-03-08T02:50:44.282Z,6.61
2019-03-08T02:53:13.165Z,6.45
2019-03-08T02:55:41.061Z,6.46
2019-03-08T02:58:08.951Z,6.46
2019-03-08T03:00:37.854Z,6.65
2019-03-08T03:03:05.761Z,6.78
2019-03-08T03:05:33.659Z,6.75
2019-03-08T03:08:01.568Z,6.70
2019-03-08T03:10:29.467Z,6.95
2019-03-08T03:12:57.357Z,6.91
2019-03-08T03:15:25.259Z,6.74
2019-03-08T03:17:53.176Z,6.67
2019-03-08T03:20:21.084Z,6.80
2019-03-08T03:22:48.988Z,6.66
2019-03-08T03:25:16.889Z,6.59
2019-03-08T03:27:44.779Z,6.52
2019-03-08T03:30:16.281Z,6.70
2019-03-08T03:32:44.172Z,6.61
2019-03-08T03:35:12.089Z,6.58
2019-03-08T03:37:40.006Z,6.68
2019-03-08T03:40:07.912Z,6.66
2019-03-08T03:42:35.818Z,6.56
2019-03-08T03:45:03.728Z,6.43
2019-03-08T03:47:31.637Z,6.52
2019-03-08T03:49:59.519Z,6.57
2019-03-08T03:52:27.437Z,6.51
2019-03-08T03:54:56.253Z,6.45
2019-03-08T03:57:24.148Z,6.41
2019-03-08T03:59:52.097Z,6.46
2019-03-08T04:02:20.037Z,6.52
2019-03-08T04:04:48.008Z,6.44
2019-03-08T04:07:15.981Z,6.31
2019-03-08T04:09:43.863Z,6.26
2019-03-08T04:12:11.760Z,6.25
2019-03-08T04:14:39.653Z,6.27
2019-03-08T04:17:07.556Z,6.18
2019-03-08T04:19:35.442Z,5.97
2019-03-08T04:22:03.339Z,5.99
2019-03-08T04:24:31.233Z,6.03
2019-03-08T04:26:59.123Z,6.33
2019-03-08T04:29:27.905Z,6.31
2019-03-08T04:31:55.802Z,6.40
2019-03-08T04:34:24.597Z,6.59
2019-03-08T04:36:52.497Z,6.45
2019-03-08T04:39:20.385Z,6.65
2019-03-08T04:41:48.360Z,6.49
2019-03-08T04:44:16.242Z,6.41
2019-03-08T04:46:44.172Z,6.23
2019-03-08T04:49:12.975Z,6.46
2019-03-08T04:51:40.875Z,6.38
2019-03-08T04:54:08.763Z,6.49
2019-03-08T04:56:36.670Z,6.37
2019-03-08T04:59:04.595Z,6.45
2019-03-08T05:01:32.461Z,6.51
2019-03-08T05:04:00.370Z,6.39
2019-03-08T05:06:28.263Z,6.44
2019-03-08T05:08:56.165Z,6.55
2019-03-08T05:11:24.091Z,6.52
2019-03-08T05:13:51.991Z,6.52
2019-03-08T05:16:19.900Z,6.61
2019-03-08T05:18:48.767Z,6.76
2019-03-08T05:21:16.666Z,6.68
2019-03-08T05:23:44.559Z,6.46
2019-03-08T05:26:12.473Z,6.38
2019-03-08T05:28:40.368Z,6.24
2019-03-08T05:31:08.303Z,6.35
2019-03-08T05:33:36.192Z,6.46
2019-03-08T05:36:05.147Z,6.50
2019-03-08T05:38:33.047Z,6.56
2019-03-08T05:41:00.927Z,6.63
2019-03-08T05:43:28.876Z,6.55
2019-03-08T05:45:56.768Z,6.48
2019-03-08T05:48:26.391Z,6.47
2019-03-08T05:50:52.615Z,6.64
2019-03-08T05:53:20.516Z,6.66
2019-03-08T05:55:48.427Z,6.54
2019-03-08T05:58:16.344Z,6.87
2019-03-08T06:00:44.236Z,6.76
2019-03-08T06:03:12.152Z,6.87
2019-03-08T06:05:40.999Z,6.88
2019-03-08T06:08:08.891Z,6.80
2019-03-08T06:10:36.783Z,6.67
2019-03-08T06:13:04.689Z,6.70
2019-03-08T06:15:32.597Z,6.73
2019-03-08T06:18:00.560Z,6.84
2019-03-08T06:20:28.427Z,6.74
2019-03-08T06:22:56.324Z,6.77
2019-03-08T06:25:24.231Z,6.93
2019-03-08T06:27:52.196Z,6.83
2019-03-08T06:30:20.075Z,6.88
2019-03-08T06:32:48.012Z,6.94
2019-03-08T06:35:15.916Z,7.08
2019-03-08T06:37:43.866Z,7.16
2019-03-08T06:42:46.825Z,7.20
2019-03-08T06:45:16.547Z,7.17
2019-03-08T06:47:42.651Z,7.08
2019-03-08T06:50:13.277Z,7.09
2019-03-08T06:52:41.164Z,7.13
2019-03-08T06:55:09.079Z,6.99
2019-03-08T06:57:36.979Z,6.92
2019-03-08T07:00:16.566Z,6.87
2019-03-08T07:02:44.496Z,6.95
2019-03-08T07:05:12.412Z,7.27
2019-03-08T07:07:41.243Z,7.48
2019-03-08T07:10:09.128Z,7.62
2019-03-08T07:12:41.331Z,7.72
2019-03-08T07:15:10.546Z,7.54
2019-03-08T07:17:38.464Z,7.51
2019-03-08T07:23:02.368Z,7.58
2019-03-08T07:25:36.057Z,7.59
2019-03-08T07:28:10.461Z,7.77
2019-03-08T07:30:40.764Z,7.74
2019-03-08T07:36:18.241Z,7.67
2019-03-08T07:38:46.140Z,7.66
2019-03-08T07:41:20.469Z,7.74
2019-03-08T07:43:53.871Z,7.72
2019-03-08T07:46:21.817Z,7.73
2019-03-08T07:48:50.510Z,7.82
2019-03-08T07:51:23.960Z,7.86
2019-03-08T07:53:55.384Z,7.83
2019-03-08T07:56:28.840Z,8.01
2019-03-08T07:59:02.263Z,8.13
2019-03-08T08:01:35.690Z,8.18
2019-03-08T08:04:09.096Z,8.09
2019-03-08T08:06:40.491Z,8.04
2019-03-08T08:12:07.057Z,8.15
2019-03-08T08:14:39.848Z,8.17
2019-03-08T08:17:05.370Z,8.20
2019-03-08T08:19:38.260Z,8.37
2019-03-08T08:22:06.174Z,8.30
2019-03-08T08:24:48.943Z,8.31
2019-03-08T08:27:16.842Z,8.22
2019-03-08T08:29:44.749Z,8.23
2019-03-08T08:32:18.171Z,8.24
2019-03-08T08:34:46.850Z,8.22
2019-03-08T08:37:15.734Z,8.19
2019-03-08T08:40:00.417Z,8.34
2019-03-08T08:42:34.021Z,8.42
2019-03-08T08:45:04.780Z,8.38
2019-03-08T08:47:33.578Z,8.29
2019-03-08T08:50:03.426Z,8.27
2019-03-08T08:52:35.284Z,8.19
2019-03-08T08:55:03.181Z,8.30
2019-03-08T08:57:32.867Z,8.43
2019-03-08T09:00:03.064Z,8.59
2019-03-08T09:02:33.743Z,8.53
2019-03-08T09:07:57.143Z,8.44
2019-03-08T09:10:26.031Z,8.27
2019-03-08T09:15:52.893Z,8.30
2019-03-08T09:18:23.264Z,8.36
2019-03-08T09:20:54.658Z,8.72
2019-03-08T09:23:22.566Z,8.80
2019-03-08T09:31:43.638Z,9.20
2019-03-08T09:37:12.828Z,8.92
2019-03-08T09:39:44.107Z,8.73
2019-03-08T09:42:13.780Z,8.71
2019-03-08T09:44:48.055Z,8.58
2019-03-08T09:47:25.853Z,8.60
2019-03-08T09:52:49.026Z,8.85
2019-03-08T09:55:28.600Z,8.94
2019-03-08T09:58:09.149Z,9.06
2019-03-08T10:00:39.612Z,9.52
2019-03-08T10:03:08.383Z,10.03
2019-03-08T10:05:46.220Z,9.93
2019-03-08T10:08:14.928Z,10.28
2019-03-08T10:13:38.666Z,10.27
2019-03-08T10:16:07.014Z,10.56
2019-03-08T10:18:35.858Z,11.59
2019-03-08T10:21:04.576Z,11.89
2019-03-08T10:23:32.469Z,12.26
2019-03-08T10:26:02.364Z,11.97
2019-03-08T10:28:32.238Z,11.85
2019-03-08T10:31:10.952Z,11.42
2019-03-08T10:36:33.675Z,12.46
2019-03-08T10:39:02.347Z,12.14
2019-03-08T10:41:47.935Z,13.63
2019-03-08T10:44:19.821Z,13.46
2019-03-08T10:46:48.473Z,13.63
2019-03-08T10:49:27.072Z,13.11
2019-03-08T10:52:08.092Z,13.64
2019-03-08T10:54:45.653Z,13.81
2019-03-08T10:57:13.552Z,13.10
2019-03-08T10:59:50.985Z,12.44
2019-03-08T11:05:15.283Z,11.59
2019-03-08T11:07:46.156Z,11.97
2019-03-08T11:13:09.976Z,11.73
2019-03-08T11:18:36.483Z,12.03
2019-03-08T11:45:10.415Z,10.38
2019-03-08T11:47:42.169Z,9.89
2019-03-08T11:53:14.661Z,9.49
2019-03-08T11:55:44.323Z,9.49
2019-03-08T12:01:07.131Z,10.32
2019-03-08T12:03:38.055Z,10.03
2019-03-08T12:06:08.245Z,9.85
2019-03-08T12:08:38.024Z,9.79
2019-03-08T12:11:22.225Z,9.77
2019-03-08T12:13:51.918Z,9.55
2019-03-08T12:16:26.433Z,9.22
2019-03-08T12:18:54.322Z,9.23
2019-03-08T12:21:23.003Z,9.17
2019-03-08T12:23:56.684Z,9.50
2019-03-08T12:29:23.451Z,9.68
2019-03-08T12:37:50.861Z,9.53
2019-03-08T12:40:21.240Z,9.88
2019-03-08T12:42:52.907Z,10.93
2019-03-08T12:45:25.580Z,11.05
2019-03-08T12:47:58.831Z,11.11
2019-03-08T12:53:25.315Z,10.53
2019-03-08T12:58:50.098Z,9.75
2019-03-08T13:01:18.103Z,9.39
2019-03-08T13:03:56.696Z,9.49
2019-03-08T13:06:27.971Z,9.88
2019-03-08T13:08:56.673Z,10.71
2019-03-08T13:11:32.872Z,11.26
2019-03-08T13:13:53.410Z,11.12
2019-03-08T13:16:21.330Z,11.14
2019-03-08T13:18:49.255Z,11.04
2019-03-08T13:21:17.183Z,10.30
2019-03-08T13:23:45.095Z,10.18
2019-03-08T13:26:13.000Z,10.28
2019-03-08T13:28:40.912Z,10.49
2019-03-08T13:31:08.807Z,10.40
2019-03-08T13:33:36.720Z,10.49
2019-03-08T13:36:04.628Z,10.42
2019-03-08T13:38:32.514Z,10.75
2019-03-08T13:41:01.417Z,10.32
2019-03-08T13:43:29.327Z,10.45
2019-03-08T13:45:58.203Z,10.46
2019-03-08T13:48:26.094Z,10.44
2019-03-08T13:50:54.019Z,10.62
2019-03-08T13:53:21.916Z,10.83
2019-03-08T13:55:49.828Z,11.38
2019-03-08T13:58:17.780Z,12.65
2019-03-08T14:00:45.683Z,13.69
2019-03-08T14:03:14.515Z,13.39
2019-03-08T14:05:43.337Z,12.69
2019-03-08T14:08:11.261Z,13.15
2019-03-08T14:10:39.191Z,12.59
2019-03-08T14:13:08.068Z,12.19
2019-03-08T14:15:36.004Z,10.98
2019-03-08T14:18:03.895Z,9.94
2019-03-08T14:20:31.800Z,10.53
2019-03-08T14:23:00.675Z,10.89
2019-03-08T14:25:28.574Z,12.53
2019-03-08T14:27:56.498Z,12.62
2019-03-08T14:30:26.764Z,11.29
2019-03-08T14:32:53.747Z,10.86
2019-03-08T14:35:21.660Z,11.37
2019-03-08T14:37:52.362Z,12.59
2019-03-08T14:43:16.982Z,9.75
2019-03-08T14:45:44.530Z,10.08
2019-03-08T14:48:12.236Z,11.38
2019-03-08T14:50:40.184Z,12.60
2019-03-08T14:53:08.332Z,11.88
2019-03-08T14:55:36.537Z,11.96
2019-03-08T14:58:04.435Z,12.42
2019-03-08T15:00:32.341Z,12.57
2019-03-08T15:03:00.283Z,12.62
2019-03-08T15:05:28.181Z,11.64
2019-03-08T15:07:56.103Z,11.61
2019-03-08T15:10:25.036Z,11.38
2019-03-08T15:12:53.220Z,11.62
2019-03-08T15:15:21.810Z,10.65
2019-03-08T15:17:53.391Z,11.43
2019-03-08T15:20:18.561Z,11.53
2019-03-08T15:22:46.469Z,12.15
2019-03-08T15:25:14.383Z,11.91
2019-03-08T15:27:42.288Z,11.98
2019-03-08T15:30:12.970Z,11.44
2019-03-08T15:32:40.903Z,11.27
2019-03-08T15:35:09.768Z,10.72
2019-03-08T15:37:44.215Z,10.22
2019-03-08T15:40:09.144Z,10.10
2019-03-08T15:42:38.071Z,10.19
2019-03-08T15:45:07.212Z,10.10
2019-03-08T15:47:36.142Z,9.85
2019-03-08T15:50:04.581Z,9.66
2019-03-08T15:52:30.843Z,9.56
2019-03-08T15:54:58.743Z,9.49
2019-03-08T15:57:27.591Z,9.42
2019-03-08T15:59:55.481Z,9.13
2019-03-08T16:02:23.390Z,9.18
2019-03-08T16:04:51.586Z,9.24
2019-03-08T16:07:23.072Z,8.93
2019-03-08T16:09:48.000Z,8.74
2019-03-08T16:12:15.938Z,8.57
2019-03-08T16:14:43.814Z,8.54
2019-03-08T16:17:11.713Z,8.43
2019-03-08T16:19:39.629Z,8.29
2019-03-08T16:22:08.723Z,8.09
2019-03-08T16:24:35.459Z,7.99
2019-03-08T16:27:03.887Z,7.87
2019-03-08T16:29:31.278Z,7.72
2019-03-08T16:31:59.972Z,7.63
2019-03-08T16:34:27.124Z,7.59
2019-03-08T16:37:07.831Z,7.51
2019-03-08T16:42:34.470Z,7.33
2019-03-08T16:45:03.636Z,7.16
2019-03-08T16:47:33.977Z,7.02
2019-03-08T16:50:09.256Z,7.03
2019-03-08T16:52:56.781Z,7.02
2019-03-08T16:55:27.479Z,6.87
2019-03-08T16:57:56.164Z,6.76
2019-03-08T17:00:24.533Z,6.68
2019-03-08T17:05:50.844Z,6.46
2019-03-08T17:08:22.124Z,6.40
2019-03-08T17:10:50.062Z,6.43
2019-03-08T17:13:19.756Z,6.28
2019-03-08T17:15:54.234Z,6.15
2019-03-08T17:18:27.071Z,6.03
2019-03-08T17:20:56.462Z,5.94
2019-03-08T17:23:29.170Z,5.89
2019-03-08T17:26:02.567Z,5.82
2019-03-08T17:28:36.085Z,5.77
2019-03-08T17:31:07.819Z,5.75
2019-03-08T17:33:40.623Z,5.71
2019-03-08T17:36:10.405Z,5.67
2019-03-08T17:38:39.194Z,5.63
2019-03-08T17:41:12.899Z,5.66
2019-03-08T17:43:44.260Z,5.50
2019-03-08T17:46:15.090Z,5.43
2019-03-08T17:48:43.906Z,5.39
2019-03-08T17:51:27.606Z,5.49
2019-03-08T17:53:57.293Z,5.39
2019-03-08T17:56:25.554Z,5.21
2019-03-08T17:59:13.177Z,5.08
2019-03-08T18:01:55.884Z,5.24
2019-03-08T18:04:24.577Z,5.26
2019-03-08T18:06:53.215Z,5.15
2019-03-08T18:09:31.007Z,5.25
2019-03-08T18:12:00.305Z,5.13
2019-03-08T18:14:30.569Z,5.22
2019-03-08T18:17:03.995Z,5.22
2019-03-08T18:19:34.117Z,5.18
2019-03-08T18:22:04.841Z,5.10
2019-03-08T18:24:38.230Z,5.13
2019-03-08T18:27:09.915Z,5.14
2019-03-08T18:32:36.523Z,4.95
2019-03-08T18:35:06.795Z,4.93
2019-03-08T18:37:35.492Z,4.77
2019-03-08T18:40:04.377Z,4.60
2019-03-08T18:42:47.046Z,4.61
2019-03-08T18:45:29.788Z,4.68
2019-03-08T18:47:58.483Z,4.63
2019-03-08T18:50:31.916Z,4.61
2019-03-08T18:53:01.648Z,4.57
2019-03-08T19:01:25.536Z,4.54
2019-03-08T19:03:56.807Z,4.45
2019-03-08T19:06:39.691Z,4.51
2019-03-08T19:09:07.681Z,4.47
2019-03-08T19:11:50.487Z,4.41
2019-03-08T19:14:23.732Z,4.25
2019-03-08T19:17:08.435Z,4.26
2019-03-08T19:19:41.801Z,4.21
2019-03-08T19:22:12.173Z,4.25
2019-03-08T19:24:45.473Z,4.15
2019-03-08T19:27:14.127Z,4.19
2019-03-08T19:29:46.838Z,4.13
2019-03-08T19:32:16.534Z,4.18
2019-03-08T19:34:54.328Z,4.22
2019-03-08T19:43:21.489Z,4.23
2019-03-08T19:45:49.489Z,4.16
2019-03-08T19:48:20.289Z,4.15
2019-03-08T19:50:50.101Z,4.26
2019-03-08T19:53:22.331Z,4.35
2019-03-08T19:55:56.596Z,4.37
2019-03-08T19:58:35.251Z,4.36
2019-03-08T20:01:03.158Z,4.29
2019-03-08T20:06:42.098Z,4.05
2019-03-08T20:12:06.802Z,4.04
2019-03-08T20:17:40.317Z,4.10
2019-03-08T20:20:11.062Z,4.05
2019-03-08T20:22:42.619Z,4.10
2019-03-08T20:25:10.878Z,4.12
2019-03-08T20:27:41.108Z,4.36
2019-03-08T20:30:14.607Z,4.40
2019-03-08T20:32:42.501Z,4.35
2019-03-08T20:35:10.414Z,4.29
2019-03-08T20:37:42.111Z,4.35
2019-03-08T20:43:04.022Z,4.52
2019-03-08T20:45:31.959Z,4.49
2019-03-08T20:47:59.820Z,4.52
2019-03-08T20:50:27.725Z,4.61
2019-03-08T20:52:55.632Z,4.61
2019-03-08T20:55:23.638Z,4.67
2019-03-08T20:57:51.534Z,4.54
2019-03-08T21:00:19.477Z,4.36
2019-03-08T21:02:48.255Z,4.38
2019-03-08T21:05:16.147Z,4.26
2019-03-08T21:07:44.046Z,4.15
2019-03-08T21:10:11.942Z,4.11
2019-03-08T21:12:39.843Z,4.14
2019-03-08T21:15:07.737Z,4.31
2019-03-08T21:17:35.623Z,4.35
2019-03-08T21:20:03.595Z,4.40
2019-03-08T21:22:31.436Z,4.35
2019-03-08T21:24:59.962Z,4.38
2019-03-08T21:27:27.212Z,4.65
2019-03-08T21:29:55.128Z,4.58
2019-03-08T21:32:23.086Z,4.63
2019-03-08T21:34:51.917Z,4.60
2019-03-08T21:37:20.857Z,4.63
2019-03-08T21:39:48.873Z,4.63
2019-03-08T21:42:16.761Z,4.56
2019-03-08T21:44:45.527Z,4.46
2019-03-08T21:47:13.417Z,4.55
2019-03-08T21:49:41.395Z,4.52
2019-03-08T21:52:09.272Z,4.49
2019-03-08T21:54:37.166Z,4.48
2019-03-08T21:57:05.063Z,4.61
2019-03-08T21:59:36.196Z,4.61
2019-03-08T22:02:04.064Z,4.61
2019-03-08T22:04:31.964Z,4.58
2019-03-08T22:06:59.982Z,4.38
2019-03-08T22:09:33.320Z,4.22
2019-03-08T22:12:01.203Z,4.04
2019-03-08T22:14:29.124Z,3.90
2019-03-08T22:16:57.035Z,3.76
2019-03-08T22:19:24.970Z,3.81
2019-03-08T22:21:52.993Z,3.96
2019-03-08T22:24:21.848Z,4.24
2019-03-08T22:26:49.772Z,4.27
2019-03-08T22:29:17.688Z,4.31
2019-03-08T22:31:45.600Z,4.37
2019-03-08T22:34:13.499Z,4.57
2019-03-08T22:36:41.451Z,4.59
2019-03-08T22:39:09.386Z,4.50
2019-03-08T22:41:37.269Z,4.57
2019-03-08T22:44:05.160Z,4.65
2019-03-08T22:46:33.055Z,4.75
2019-03-08T22:49:00.951Z,4.79
2019-03-08T22:51:29.901Z,4.81
2019-03-08T22:53:57.835Z,4.85
2019-03-08T22:56:25.717Z,4.87
2019-03-08T22:58:53.608Z,4.99
2019-03-08T23:01:21.515Z,5.11
2019-03-08T23:03:49.419Z,5.10
2019-03-08T23:06:17.353Z,5.11
2019-03-08T23:08:45.330Z,5.11
2019-03-08T23:11:13.200Z,5.12
2019-03-08T23:13:41.089Z,5.13
2019-03-08T23:16:08.991Z,5.17
2019-03-08T23:18:36.882Z,5.15
2019-03-08T23:21:04.800Z,5.10
2019-03-08T23:23:32.743Z,5.09
2019-03-08T23:26:00.640Z,5.11
2019-03-08T23:28:34.390Z,5.18
2019-03-08T23:31:07.862Z,5.18
2019-03-08T23:33:35.767Z,5.24
2019-03-08T23:36:03.663Z,5.31
2019-03-08T23:38:31.555Z,5.26
2019-03-08T23:40:59.466Z,5.25
2019-03-08T23:43:27.481Z,5.25
2019-03-08T23:45:55.355Z,5.31
2019-03-08T23:48:23.279Z,5.35
2019-03-08T23:50:51.168Z,5.29
2019-03-08T23:53:19.076Z,5.28
2019-03-08T23:55:47.016Z,5.25
2019-03-08T23:58:14.922Z,5.25
